sensor_id;sensor_type;location;lat;lon;timestamp;pressure;altitude;pressure_sealevel;temperature;humidity
54248;BME280;40161;39.768;2.722;2023-03-01T00:00:14;101354.59;;;8.29;100.00
54248;BME280;40161;39.768;2.722;2023-03-01T00:02:40;101351.25;;;8.24;100.00
54248;BME280;40161;39.768;2.722;2023-03-01T00:05:06;101347.91;;;8.39;100.00
54248;BME280;40161;39.768;2.722;2023-03-01T00:07:33;101340.56;;;8.31;100.00
54248;BME280;40161;39.768;2.722;2023-03-01T00:09:58;101354.25;;;8.10;100.00
54248;BME280;40161;39.768;2.722;2023-03-01T00:12:24;101357.25;;;8.17;100.00
54248;BME280;40161;39.768;2.722;2023-03-01T00:14:50;101352.66;;;8.09;100.00
54248;BME280;40161;39.768;2.722;2023-03-01T00:17:15;101361.41;;;8.02;100.00
54248;BME280;40161;39.768;2.722;2023-03-01T00:19:42;101367.97;;;8.22;100.00
54248;BME280;40161;39.768;2.722;2023-03-01T00:22:07;101367.72;;;8.15;100.00
54248;BME280;40161;39.768;2.722;2023-03-01T00:24:33;101351.53;;;8.10;100.00
54248;BME280;40161;39.768;2.722;2023-03-01T00:26:59;101379.91;;;7.97;100.00
54248;BME280;40161;39.768;2.722;2023-03-01T00:29:24;101366.47;;;7.92;100.00
54248;BME280;40161;39.768;2.722;2023-03-01T00:31:50;101382.34;;;7.98;100.00
54248;BME280;40161;39.768;2.722;2023-03-01T00:34:16;101379.00;;;8.14;100.00
54248;BME280;40161;39.768;2.722;2023-03-01T00:36:42;101364.31;;;8.18;100.00
54248;BME280;40161;39.768;2.722;2023-03-01T00:39:11;101378.19;;;8.34;100.00
54248;BME280;40161;39.768;2.722;2023-03-01T00:41:37;101378.59;;;8.24;100.00
54248;BME280;40161;39.768;2.722;2023-03-01T00:44:03;101344.13;;;8.11;100.00
54248;BME280;40161;39.768;2.722;2023-03-01T00:46:29;101364.91;;;8.24;100.00
54248;BME280;40161;39.768;2.722;2023-03-01T00:48:57;101365.09;;;8.19;100.00
54248;BME280;40161;39.768;2.722;2023-03-01T00:51:25;101361.38;;;8.23;100.00
54248;BME280;40161;39.768;2.722;2023-03-01T00:53:55;101326.78;;;8.06;100.00
54248;BME280;40161;39.768;2.722;2023-03-01T00:56:22;101360.00;;;8.38;100.00
54248;BME280;40161;39.768;2.722;2023-03-01T00:58:48;101364.91;;;8.24;100.00
54248;BME280;40161;39.768;2.722;2023-03-01T01:01:18;101340.63;;;8.01;100.00
54248;BME280;40161;39.768;2.722;2023-03-01T01:03:46;101339.41;;;7.99;100.00
54248;BME280;40161;39.768;2.722;2023-03-01T01:06:17;101339.41;;;7.99;100.00
54248;BME280;40161;39.768;2.722;2023-03-01T01:08:43;101347.50;;;8.07;100.00
54248;BME280;40161;39.768;2.722;2023-03-01T01:11:10;101342.31;;;8.15;100.00
54248;BME280;40161;39.768;2.722;2023-03-01T01:13:36;101343.94;;;8.16;100.00
54248;BME280;40161;39.768;2.722;2023-03-01T01:16:02;101336.03;;;8.14;100.00
54248;BME280;40161;39.768;2.722;2023-03-01T01:18:28;101328.72;;;8.06;100.00
54248;BME280;40161;39.768;2.722;2023-03-01T01:20:53;101353.09;;;8.11;100.00
54248;BME280;40161;39.768;2.722;2023-03-01T01:23:19;101351.03;;;8.08;100.00
54248;BME280;40161;39.768;2.722;2023-03-01T01:25:45;101344.72;;;7.95;100.00
54248;BME280;40161;39.768;2.722;2023-03-01T01:28:11;101331.78;;;8.04;100.00
54248;BME280;40161;39.768;2.722;2023-03-01T01:30:37;101340.63;;;8.22;100.00
54248;BME280;40161;39.768;2.722;2023-03-01T01:33:02;101334.72;;;8.20;100.00
54248;BME280;40161;39.768;2.722;2023-03-01T01:35:28;101330.72;;;7.97;100.00
54248;BME280;40161;39.768;2.722;2023-03-01T01:37:54;101336.31;;;8.00;100.00
54248;BME280;40161;39.768;2.722;2023-03-01T01:40:19;101340.44;;;7.85;100.00
54248;BME280;40161;39.768;2.722;2023-03-01T01:42:45;101333.13;;;7.98;100.00
54248;BME280;40161;39.768;2.722;2023-03-01T01:47:52;101342.31;;;8.15;100.00
54248;BME280;40161;39.768;2.722;2023-03-01T01:50:19;101329.38;;;8.03;100.00
54248;BME280;40161;39.768;2.722;2023-03-01T01:52:46;101329.25;;;7.99;100.00
54248;BME280;40161;39.768;2.722;2023-03-01T01:55:17;101327.97;;;7.97;100.00
54248;BME280;40161;39.768;2.722;2023-03-01T01:57:49;101324.38;;;7.84;100.00
54248;BME280;40161;39.768;2.722;2023-03-01T02:00:23;101329.13;;;7.75;100.00
54248;BME280;40161;39.768;2.722;2023-03-01T02:02:50;101325.91;;;7.73;100.00
54248;BME280;40161;39.768;2.722;2023-03-01T02:05:37;101314.28;;;7.55;100.00
54248;BME280;40161;39.768;2.722;2023-03-01T02:08:04;101330.63;;;7.64;100.00
54248;BME280;40161;39.768;2.722;2023-03-01T02:10:33;101295.78;;;7.60;100.00
54248;BME280;40161;39.768;2.722;2023-03-01T02:13:00;101317.03;;;7.76;100.00
54248;BME280;40161;39.768;2.722;2023-03-01T02:15:31;101309.13;;;7.83;100.00
54248;BME280;40161;39.768;2.722;2023-03-01T02:17:58;101310.66;;;7.93;100.00
54248;BME280;40161;39.768;2.722;2023-03-01T02:20:35;101307.41;;;7.78;100.00
54248;BME280;40161;39.768;2.722;2023-03-01T02:23:05;101318.97;;;7.75;100.00
54248;BME280;40161;39.768;2.722;2023-03-01T02:25:57;101307.44;;;7.70;100.00
54248;BME280;40161;39.768;2.722;2023-03-01T02:28:37;101287.53;;;7.69;100.00
54248;BME280;40161;39.768;2.722;2023-03-01T02:31:05;101302.91;;;7.74;100.00
54248;BME280;40161;39.768;2.722;2023-03-01T02:33:51;101288.28;;;7.78;100.00
54248;BME280;40161;39.768;2.722;2023-03-01T02:36:48;101296.06;;;7.89;100.00
54248;BME280;40161;39.768;2.722;2023-03-01T02:39:17;101284.53;;;7.83;100.00
54248;BME280;40161;39.768;2.722;2023-03-01T02:41:49;101280.78;;;7.67;100.00
54248;BME280;40161;39.768;2.722;2023-03-01T02:44:16;101269.31;;;7.52;100.00
54248;BME280;40161;39.768;2.722;2023-03-01T02:46:49;101240.56;;;7.25;100.00
54248;BME280;40161;39.768;2.722;2023-03-01T02:49:27;101275.00;;;7.47;100.00
54248;BME280;40161;39.768;2.722;2023-03-01T02:55:08;101278.06;;;7.67;100.00
54248;BME280;40161;39.768;2.722;2023-03-01T02:57:36;101243.53;;;7.41;100.00
54248;BME280;40161;39.768;2.722;2023-03-01T03:00:19;101263.19;;;7.55;100.00
54248;BME280;40161;39.768;2.722;2023-03-01T03:02:47;101244.28;;;7.50;100.00
54248;BME280;40161;39.768;2.722;2023-03-01T03:05:19;101277.59;;;7.65;100.00
54248;BME280;40161;39.768;2.722;2023-03-01T03:07:47;101261.22;;;7.65;100.00
54248;BME280;40161;39.768;2.722;2023-03-01T03:10:24;101259.88;;;7.92;100.00
54248;BME280;40161;39.768;2.722;2023-03-01T03:12:57;101247.00;;;7.92;100.00
54248;BME280;40161;39.768;2.722;2023-03-01T03:15:25;101258.47;;;7.85;100.00
54248;BME280;40161;39.768;2.722;2023-03-01T03:17:52;101260.06;;;7.66;100.00
54248;BME280;40161;39.768;2.722;2023-03-01T03:20:21;101249.28;;;7.48;100.00
54248;BME280;40161;39.768;2.722;2023-03-01T03:22:50;101263.81;;;7.61;100.00
54248;BME280;40161;39.768;2.722;2023-03-01T03:25:17;101266.13;;;7.50;100.00
54248;BME280;40161;39.768;2.722;2023-03-01T03:27:44;101258.41;;;7.52;100.00
54248;BME280;40161;39.768;2.722;2023-03-01T03:30:12;101267.72;;;7.72;100.00
54248;BME280;40161;39.768;2.722;2023-03-01T03:32:43;101271.25;;;7.73;100.00
54248;BME280;40161;39.768;2.722;2023-03-01T03:35:20;101286.25;;;7.67;100.00
54248;BME280;40161;39.768;2.722;2023-03-01T03:37:46;101266.59;;;7.52;100.00
54248;BME280;40161;39.768;2.722;2023-03-01T03:40:28;101279.66;;;7.68;100.00
54248;BME280;40161;39.768;2.722;2023-03-01T03:42:54;101284.31;;;7.67;100.00
54248;BME280;40161;39.768;2.722;2023-03-01T03:45:20;101261.78;;;7.49;100.00
54248;BME280;40161;39.768;2.722;2023-03-01T03:47:46;101292.31;;;7.72;100.00
54248;BME280;40161;39.768;2.722;2023-03-01T03:50:14;101292.19;;;7.69;100.00
54248;BME280;40161;39.768;2.722;2023-03-01T03:52:41;101311.94;;;7.74;100.00
54248;BME280;40161;39.768;2.722;2023-03-01T03:55:09;101302.66;;;7.88;100.00
54248;BME280;40161;39.768;2.722;2023-03-01T03:57:36;101293.78;;;7.70;100.00
54248;BME280;40161;39.768;2.722;2023-03-01T04:00:03;101306.78;;;7.94;100.00
54248;BME280;40161;39.768;2.722;2023-03-01T04:02:30;101300.00;;;7.79;100.00
54248;BME280;40161;39.768;2.722;2023-03-01T04:04:56;101308.97;;;7.79;100.00
54248;BME280;40161;39.768;2.722;2023-03-01T04:07:21;101300.84;;;7.71;100.00
54248;BME280;40161;39.768;2.722;2023-03-01T04:09:47;101293.91;;;7.73;100.00
54248;BME280;40161;39.768;2.722;2023-03-01T04:12:13;101299.63;;;7.59;100.00
54248;BME280;40161;39.768;2.722;2023-03-01T04:14:38;101290.88;;;7.75;100.00
54248;BME280;40161;39.768;2.722;2023-03-01T04:17:04;101305.25;;;7.84;100.00
54248;BME280;40161;39.768;2.722;2023-03-01T04:19:33;101281.41;;;7.72;100.00
54248;BME280;40161;39.768;2.722;2023-03-01T04:22:04;101284.25;;;7.76;99.96
54248;BME280;40161;39.768;2.722;2023-03-01T04:24:37;101246.88;;;7.68;100.00
54248;BME280;40161;39.768;2.722;2023-03-01T04:27:03;101298.78;;;8.09;99.76
54248;BME280;40161;39.768;2.722;2023-03-01T04:29:29;101292.44;;;7.97;98.58
54248;BME280;40161;39.768;2.722;2023-03-01T04:31:55;101296.19;;;7.92;99.03
54248;BME280;40161;39.768;2.722;2023-03-01T04:34:20;101285.44;;;7.87;99.23
54248;BME280;40161;39.768;2.722;2023-03-01T04:36:46;101239.00;;;7.66;99.82
54248;BME280;40161;39.768;2.722;2023-03-01T04:39:12;101284.91;;;7.94;98.95
54248;BME280;40161;39.768;2.722;2023-03-01T04:41:38;101268.72;;;7.89;99.23
54248;BME280;40161;39.768;2.722;2023-03-01T04:44:08;101285.97;;;7.80;96.50
54248;BME280;40161;39.768;2.722;2023-03-01T04:46:35;101273.47;;;7.58;96.85
54248;BME280;40161;39.768;2.722;2023-03-01T04:49:02;101292.59;;;7.58;97.72
54248;BME280;40161;39.768;2.722;2023-03-01T04:51:27;101288.97;;;7.46;97.58
54248;BME280;40161;39.768;2.722;2023-03-01T04:53:53;101299.22;;;7.49;97.50
54248;BME280;40161;39.768;2.722;2023-03-01T04:56:19;101248.63;;;7.22;98.48
54248;BME280;40161;39.768;2.722;2023-03-01T04:58:45;101290.31;;;7.60;99.19
54248;BME280;40161;39.768;2.722;2023-03-01T05:01:13;101294.03;;;7.77;99.55
54248;BME280;40161;39.768;2.722;2023-03-01T05:03:44;101288.41;;;7.82;100.00
54248;BME280;40161;39.768;2.722;2023-03-01T05:06:10;101283.38;;;7.84;99.00
54248;BME280;40161;39.768;2.722;2023-03-01T05:08:37;101289.38;;;7.77;97.84
54248;BME280;40161;39.768;2.722;2023-03-01T05:11:03;101294.53;;;7.79;97.99
54248;BME280;40161;39.768;2.722;2023-03-01T05:13:29;101270.25;;;7.56;98.95
54248;BME280;40161;39.768;2.722;2023-03-01T05:15:58;101298.06;;;7.79;99.15
54248;BME280;40161;39.768;2.722;2023-03-01T05:18:25;101304.13;;;7.85;98.72
54248;BME280;40161;39.768;2.722;2023-03-01T05:21:03;101303.34;;;7.84;99.59
54248;BME280;40161;39.768;2.722;2023-03-01T05:23:32;101257.34;;;7.66;100.00
54248;BME280;40161;39.768;2.722;2023-03-01T05:25:59;101297.88;;;7.84;97.67
54248;BME280;40161;39.768;2.722;2023-03-01T05:28:26;101308.22;;;7.70;99.98
54248;BME280;40161;39.768;2.722;2023-03-01T05:30:54;101313.91;;;7.86;100.00
54248;BME280;40161;39.768;2.722;2023-03-01T05:33:19;101306.19;;;7.88;100.00
54248;BME280;40161;39.768;2.722;2023-03-01T05:35:48;101304.97;;;7.77;99.21
54248;BME280;40161;39.768;2.722;2023-03-01T05:38:15;101303.69;;;7.53;99.67
54248;BME280;40161;39.768;2.722;2023-03-01T05:40:45;101308.97;;;7.58;100.00
54248;BME280;40161;39.768;2.722;2023-03-01T05:43:11;101305.84;;;7.69;100.00
54248;BME280;40161;39.768;2.722;2023-03-01T05:45:38;101296.44;;;7.57;100.00
54248;BME280;40161;39.768;2.722;2023-03-01T05:48:05;101304.78;;;7.61;100.00
54248;BME280;40161;39.768;2.722;2023-03-01T05:50:36;101306.72;;;7.60;100.00
54248;BME280;40161;39.768;2.722;2023-03-01T05:53:03;101322.91;;;7.66;100.00
54248;BME280;40161;39.768;2.722;2023-03-01T05:55:31;101318.56;;;7.65;100.00
54248;BME280;40161;39.768;2.722;2023-03-01T05:58:05;101317.66;;;7.60;100.00
54248;BME280;40161;39.768;2.722;2023-03-01T06:00:31;101316.16;;;7.63;99.95
54248;BME280;40161;39.768;2.722;2023-03-01T06:02:58;101318.84;;;7.72;99.72
54248;BME280;40161;39.768;2.722;2023-03-01T06:05:25;101309.38;;;7.69;100.00
54248;BME280;40161;39.768;2.722;2023-03-01T06:07:51;101309.03;;;7.71;100.00
54248;BME280;40161;39.768;2.722;2023-03-01T06:10:20;101312.25;;;7.73;99.63
54248;BME280;40161;39.768;2.722;2023-03-01T06:12:46;101312.09;;;7.69;99.49
54248;BME280;40161;39.768;2.722;2023-03-01T06:15:14;101315.63;;;7.70;100.00
54248;BME280;40161;39.768;2.722;2023-03-01T06:17:41;101319.28;;;7.74;99.65
54248;BME280;40161;39.768;2.722;2023-03-01T06:20:13;101317.53;;;7.78;99.87
54248;BME280;40161;39.768;2.722;2023-03-01T06:22:39;101319.16;;;7.70;98.62
54248;BME280;40161;39.768;2.722;2023-03-01T06:25:05;101311.47;;;7.43;99.98
54248;BME280;40161;39.768;2.722;2023-03-01T06:27:31;101309.53;;;7.43;100.00
54248;BME280;40161;39.768;2.722;2023-03-01T06:29:56;101313.50;;;7.54;100.00
54248;BME280;40161;39.768;2.722;2023-03-01T06:32:22;101312.22;;;7.52;100.00
54248;BME280;40161;39.768;2.722;2023-03-01T06:34:48;101314.97;;;7.73;100.00
54248;BME280;40161;39.768;2.722;2023-03-01T06:37:13;101318.19;;;7.75;100.00
54248;BME280;40161;39.768;2.722;2023-03-01T06:39:39;101311.97;;;7.66;100.00
54248;BME280;40161;39.768;2.722;2023-03-01T06:42:04;101314.44;;;7.58;100.00
54248;BME280;40161;39.768;2.722;2023-03-01T06:44:30;101311.09;;;7.53;100.00
54248;BME280;40161;39.768;2.722;2023-03-01T06:46:56;101310.25;;;7.61;99.63
54248;BME280;40161;39.768;2.722;2023-03-01T06:49:22;101320.84;;;7.63;99.87
54248;BME280;40161;39.768;2.722;2023-03-01T06:51:47;101330.88;;;7.71;100.00
54248;BME280;40161;39.768;2.722;2023-03-01T06:54:13;101316.63;;;7.65;100.00
54248;BME280;40161;39.768;2.722;2023-03-01T06:56:39;101321.09;;;7.70;99.63
54248;BME280;40161;39.768;2.722;2023-03-01T06:59:04;101336.34;;;7.71;99.85
54248;BME280;40161;39.768;2.722;2023-03-01T07:01:30;101333.91;;;7.78;99.35
54248;BME280;40161;39.768;2.722;2023-03-01T07:03:56;101343.09;;;7.73;99.15
54248;BME280;40161;39.768;2.722;2023-03-01T07:06:22;101350.50;;;7.73;98.80
54248;BME280;40161;39.768;2.722;2023-03-01T07:08:48;101353.44;;;7.68;99.24
54248;BME280;40161;39.768;2.722;2023-03-01T07:11:14;101342.28;;;7.73;99.18
54248;BME280;40161;39.768;2.722;2023-03-01T07:13:40;101350.97;;;7.75;98.04
54248;BME280;40161;39.768;2.722;2023-03-01T07:16:06;101333.69;;;7.62;97.34
54248;BME280;40161;39.768;2.722;2023-03-01T07:18:31;101352.47;;;7.64;97.36
54248;BME280;40161;39.768;2.722;2023-03-01T07:20:57;101335.75;;;7.65;98.60
54248;BME280;40161;39.768;2.722;2023-03-01T07:23:23;101350.63;;;7.76;98.13
54248;BME280;40161;39.768;2.722;2023-03-01T07:25:53;101365.03;;;7.85;97.46
54248;BME280;40161;39.768;2.722;2023-03-01T07:28:20;101360.56;;;7.81;98.43
54248;BME280;40161;39.768;2.722;2023-03-01T07:30:45;101369.25;;;7.83;98.12
54248;BME280;40161;39.768;2.722;2023-03-01T07:33:11;101368.56;;;7.86;97.72
54248;BME280;40161;39.768;2.722;2023-03-01T07:35:36;101383.31;;;7.94;97.63
54248;BME280;40161;39.768;2.722;2023-03-01T07:38:02;101378.97;;;7.93;97.70
54248;BME280;40161;39.768;2.722;2023-03-01T07:40:27;101383.66;;;7.92;97.07
54248;BME280;40161;39.768;2.722;2023-03-01T07:42:57;101378.19;;;7.92;96.60
54248;BME280;40161;39.768;2.722;2023-03-01T07:45:24;101383.13;;;7.99;96.23
54248;BME280;40161;39.768;2.722;2023-03-01T07:47:53;101396.78;;;7.99;96.98
54248;BME280;40161;39.768;2.722;2023-03-01T07:50:19;101394.38;;;7.97;95.72
54248;BME280;40161;39.768;2.722;2023-03-01T07:52:46;101399.72;;;7.94;96.84
54248;BME280;40161;39.768;2.722;2023-03-01T07:55:11;101394.19;;;8.02;96.53
54248;BME280;40161;39.768;2.722;2023-03-01T07:57:37;101387.09;;;8.01;96.08
54248;BME280;40161;39.768;2.722;2023-03-01T08:00:04;101396.53;;;8.13;96.26
54248;BME280;40161;39.768;2.722;2023-03-01T08:02:30;101398.41;;;8.21;96.65
54248;BME280;40161;39.768;2.722;2023-03-01T08:04:55;101379.78;;;8.14;97.01
54248;BME280;40161;39.768;2.722;2023-03-01T08:07:21;101391.91;;;8.25;97.43
54248;BME280;40161;39.768;2.722;2023-03-01T08:09:46;101385.22;;;8.23;97.17
54248;BME280;40161;39.768;2.722;2023-03-01T08:12:12;101402.53;;;8.27;97.06
54248;BME280;40161;39.768;2.722;2023-03-01T08:14:37;101390.53;;;8.19;97.99
54248;BME280;40161;39.768;2.722;2023-03-01T08:17:03;101406.69;;;8.33;95.91
54248;BME280;40161;39.768;2.722;2023-03-01T08:19:29;101396.59;;;8.25;96.57
54248;BME280;40161;39.768;2.722;2023-03-01T08:21:55;101402.81;;;8.34;96.29
54248;BME280;40161;39.768;2.722;2023-03-01T08:24:23;101371.66;;;8.05;96.16
54248;BME280;40161;39.768;2.722;2023-03-01T08:26:49;101413.91;;;8.38;95.62
54248;BME280;40161;39.768;2.722;2023-03-01T08:29:14;101403.75;;;8.38;96.49
54248;BME280;40161;39.768;2.722;2023-03-01T08:31:40;101403.25;;;8.36;95.81
54248;BME280;40161;39.768;2.722;2023-03-01T08:34:12;101406.31;;;8.43;95.88
54248;BME280;40161;39.768;2.722;2023-03-01T08:36:41;101408.34;;;8.46;96.91
54248;BME280;40161;39.768;2.722;2023-03-01T08:39:08;101400.72;;;8.31;97.29
54248;BME280;40161;39.768;2.722;2023-03-01T08:41:34;101416.91;;;8.45;98.08
54248;BME280;40161;39.768;2.722;2023-03-01T08:44:00;101411.44;;;8.45;97.33
54248;BME280;40161;39.768;2.722;2023-03-01T08:46:31;101412.84;;;8.51;96.70
54248;BME280;40161;39.768;2.722;2023-03-01T08:48:57;101413.41;;;8.56;96.94
54248;BME280;40161;39.768;2.722;2023-03-01T08:51:24;101415.03;;;8.58;93.41
54248;BME280;40161;39.768;2.722;2023-03-01T08:53:50;101411.81;;;8.55;90.57
54248;BME280;40161;39.768;2.722;2023-03-01T08:56:16;101405.81;;;8.62;88.64
54248;BME280;40161;39.768;2.722;2023-03-01T08:58:45;101389.75;;;8.73;89.11
54248;BME280;40161;39.768;2.722;2023-03-01T09:01:13;101407.34;;;8.84;87.88
54248;BME280;40161;39.768;2.722;2023-03-01T09:03:40;101407.81;;;8.86;86.70
54248;BME280;40161;39.768;2.722;2023-03-01T09:06:07;101374.63;;;8.75;88.23
54248;BME280;40161;39.768;2.722;2023-03-01T09:08:38;101393.72;;;8.96;86.64
54248;BME280;40161;39.768;2.722;2023-03-01T09:11:06;101411.47;;;8.90;84.32
54248;BME280;40161;39.768;2.722;2023-03-01T09:13:32;101392.56;;;8.85;85.73
54248;BME280;40161;39.768;2.722;2023-03-01T09:15:59;101394.81;;;8.83;82.52
54248;BME280;40161;39.768;2.722;2023-03-01T09:18:25;101395.16;;;8.82;80.43
54248;BME280;40161;39.768;2.722;2023-03-01T09:20:51;101387.53;;;8.87;78.76
54248;BME280;40161;39.768;2.722;2023-03-01T09:23:16;101372.25;;;8.86;78.23
54248;BME280;40161;39.768;2.722;2023-03-01T09:25:42;101342.25;;;8.77;79.28
54248;BME280;40161;39.768;2.722;2023-03-01T09:28:07;101393.63;;;9.17;79.26
54248;BME280;40161;39.768;2.722;2023-03-01T09:30:33;101380.31;;;9.16;78.88
54248;BME280;40161;39.768;2.722;2023-03-01T09:32:58;101382.81;;;9.21;78.33
54248;BME280;40161;39.768;2.722;2023-03-01T09:35:24;101384.19;;;9.27;78.24
54248;BME280;40161;39.768;2.722;2023-03-01T09:37:50;101386.13;;;9.39;79.71
54248;BME280;40161;39.768;2.722;2023-03-01T09:40:17;101375.53;;;9.37;78.85
54248;BME280;40161;39.768;2.722;2023-03-01T09:42:54;101363.88;;;9.40;77.98
54248;BME280;40161;39.768;2.722;2023-03-01T09:45:33;101372.19;;;9.56;78.26
54248;BME280;40161;39.768;2.722;2023-03-01T09:48:00;101355.75;;;9.56;78.02
54248;BME280;40161;39.768;2.722;2023-03-01T09:50:33;101352.09;;;9.52;75.99
54248;BME280;40161;39.768;2.722;2023-03-01T09:53:15;101365.56;;;9.69;77.53
54248;BME280;40161;39.768;2.722;2023-03-01T09:56:04;101376.06;;;9.80;78.37
54248;BME280;40161;39.768;2.722;2023-03-01T10:09:43;101348.44;;;9.72;73.23
54248;BME280;40161;39.768;2.722;2023-03-01T10:12:12;101308.25;;;9.64;75.51
54248;BME280;40161;39.768;2.722;2023-03-01T10:15:18;101362.09;;;9.97;75.92
54248;BME280;40161;39.768;2.722;2023-03-01T10:17:50;101361.06;;;10.02;76.03
54248;BME280;40161;39.768;2.722;2023-03-01T10:20:25;101362.78;;;10.06;76.17
54248;BME280;40161;39.768;2.722;2023-03-01T10:22:51;101363.81;;;10.02;74.92
54248;BME280;40161;39.768;2.722;2023-03-01T10:25:47;101341.41;;;9.99;75.10
54248;BME280;40161;39.768;2.722;2023-03-01T10:28:34;101313.59;;;9.85;73.82
54248;BME280;40161;39.768;2.722;2023-03-01T10:31:13;101354.66;;;10.10;74.23
54248;BME280;40161;39.768;2.722;2023-03-01T10:33:41;101349.84;;;10.07;74.91
54248;BME280;40161;39.768;2.722;2023-03-01T10:36:07;101349.63;;;10.12;73.46
54248;BME280;40161;39.768;2.722;2023-03-01T10:38:54;101348.91;;;10.15;73.23
54248;BME280;40161;39.768;2.722;2023-03-01T10:41:23;101343.19;;;10.20;73.59
54248;BME280;40161;39.768;2.722;2023-03-01T10:43:52;101357.13;;;10.27;74.93
54248;BME280;40161;39.768;2.722;2023-03-01T10:46:23;101355.66;;;10.30;75.59
54248;BME280;40161;39.768;2.722;2023-03-01T10:49:16;101354.25;;;10.36;75.90
54248;BME280;40161;39.768;2.722;2023-03-01T10:51:44;101356.63;;;10.37;75.21
54248;BME280;40161;39.768;2.722;2023-03-01T10:54:30;101361.25;;;10.49;76.07
54248;BME280;40161;39.768;2.722;2023-03-01T10:57:02;101352.59;;;10.47;75.09
54248;BME280;40161;39.768;2.722;2023-03-01T10:59:38;101358.53;;;10.49;75.04
54248;BME280;40161;39.768;2.722;2023-03-01T11:02:26;101368.59;;;10.45;72.38
54248;BME280;40161;39.768;2.722;2023-03-01T11:05:01;101373.06;;;10.50;74.44
54248;BME280;40161;39.768;2.722;2023-03-01T11:07:27;101363.72;;;10.38;71.51
54248;BME280;40161;39.768;2.722;2023-03-01T11:09:53;101368.06;;;10.39;71.42
54248;BME280;40161;39.768;2.722;2023-03-01T11:12:20;101367.13;;;10.48;73.53
54248;BME280;40161;39.768;2.722;2023-03-01T11:14:55;101365.75;;;10.41;70.86
54248;BME280;40161;39.768;2.722;2023-03-01T11:17:27;101350.94;;;10.30;71.10
54248;BME280;40161;39.768;2.722;2023-03-01T11:22:53;101365.34;;;10.39;72.04
54248;BME280;40161;39.768;2.722;2023-03-01T11:25:25;101354.03;;;10.29;71.01
54248;BME280;40161;39.768;2.722;2023-03-01T11:27:53;101333.59;;;10.26;71.04
54248;BME280;40161;39.768;2.722;2023-03-01T11:38:53;101357.59;;;10.57;73.15
54248;BME280;40161;39.768;2.722;2023-03-01T11:41:26;101351.22;;;10.53;72.81
54248;BME280;40161;39.768;2.722;2023-03-01T11:44:00;101328.50;;;10.40;73.17
54248;BME280;40161;39.768;2.722;2023-03-01T11:46:48;101347.59;;;10.65;73.09
54248;BME280;40161;39.768;2.722;2023-03-01T12:06:44;101338.75;;;10.72;71.35
54248;BME280;40161;39.768;2.722;2023-03-01T12:09:21;101337.69;;;10.76;71.90
54248;BME280;40161;39.768;2.722;2023-03-01T12:18:15;101321.84;;;10.85;71.24
54248;BME280;40161;39.768;2.722;2023-03-01T12:27:14;101271.44;;;10.62;67.72
54248;BME280;40161;39.768;2.722;2023-03-01T12:29:43;101329.13;;;11.09;70.24
54248;BME280;40161;39.768;2.722;2023-03-01T12:32:20;101325.03;;;11.03;69.52
54248;BME280;40161;39.768;2.722;2023-03-01T12:35:09;101319.00;;;10.98;68.57
54248;BME280;40161;39.768;2.722;2023-03-01T12:37:54;101316.00;;;11.03;69.15
54248;BME280;40161;39.768;2.722;2023-03-01T12:43:44;101281.19;;;10.75;69.31
54248;BME280;40161;39.768;2.722;2023-03-01T12:51:38;101265.19;;;10.77;68.29
54248;BME280;40161;39.768;2.722;2023-03-01T12:54:27;101296.06;;;11.06;66.17
54248;BME280;40161;39.768;2.722;2023-03-01T12:56:54;101301.66;;;11.09;68.35
54248;BME280;40161;39.768;2.722;2023-03-01T12:59:39;101298.72;;;11.18;69.39
54248;BME280;40161;39.768;2.722;2023-03-01T13:07:47;101294.66;;;10.96;66.22
54248;BME280;40161;39.768;2.722;2023-03-01T13:17:51;101280.22;;;10.99;66.74
54248;BME280;40161;39.768;2.722;2023-03-01T13:20:25;101254.63;;;10.79;66.02
54248;BME280;40161;39.768;2.722;2023-03-01T13:28:53;101276.56;;;11.11;68.67
54248;BME280;40161;39.768;2.722;2023-03-01T13:33:52;101260.28;;;10.86;64.52
54248;BME280;40161;39.768;2.722;2023-03-01T13:39:01;101222.38;;;10.76;67.51
54248;BME280;40161;39.768;2.722;2023-03-01T13:46:46;101260.72;;;11.04;66.84
54248;BME280;40161;39.768;2.722;2023-03-01T13:49:18;101256.22;;;10.96;68.40
54248;BME280;40161;39.768;2.722;2023-03-01T13:51:49;101243.47;;;10.88;68.23
54248;BME280;40161;39.768;2.722;2023-03-01T13:54:26;101255.94;;;10.85;67.79
54248;BME280;40161;39.768;2.722;2023-03-01T13:56:55;101247.97;;;10.80;68.66
54248;BME280;40161;39.768;2.722;2023-03-01T13:59:22;101242.69;;;10.87;68.94
54248;BME280;40161;39.768;2.722;2023-03-01T14:01:56;101258.06;;;10.92;68.22
54248;BME280;40161;39.768;2.722;2023-03-01T14:04:28;101260.75;;;10.88;69.73
54248;BME280;40161;39.768;2.722;2023-03-01T14:09:43;101216.00;;;10.40;69.64
54248;BME280;40161;39.768;2.722;2023-03-01T14:15:19;101250.81;;;10.68;66.90
54248;BME280;40161;39.768;2.722;2023-03-01T14:20:42;101230.72;;;10.64;66.83
54248;BME280;40161;39.768;2.722;2023-03-01T14:23:18;101194.16;;;10.60;67.08
54248;BME280;40161;39.768;2.722;2023-03-01T14:25:52;101222.28;;;10.73;69.62
54248;BME280;40161;39.768;2.722;2023-03-01T14:28:28;101229.81;;;10.76;68.96
54248;BME280;40161;39.768;2.722;2023-03-01T14:30:58;101224.97;;;10.85;68.39
54248;BME280;40161;39.768;2.722;2023-03-01T14:33:33;101233.28;;;10.88;66.96
54248;BME280;40161;39.768;2.722;2023-03-01T14:36:00;101235.50;;;10.83;67.88
54248;BME280;40161;39.768;2.722;2023-03-01T14:41:23;101239.47;;;10.85;66.24
54248;BME280;40161;39.768;2.722;2023-03-01T14:43:55;101235.41;;;10.79;66.14
54248;BME280;40161;39.768;2.722;2023-03-01T14:51:40;101210.09;;;10.54;66.85
54248;BME280;40161;39.768;2.722;2023-03-01T14:54:27;101206.72;;;10.61;68.09
54248;BME280;40161;39.768;2.722;2023-03-01T14:56:59;101215.03;;;10.64;67.05